sensor_id;sensor_type;location;lat;lon;timestamp;temperature;humidity
52859;DHT22;38721;53.098;6.596;2022-11-20T00:00:38;-0.50;99.90
52859;DHT22;38721;53.098;6.596;2022-11-20T00:03:03;-0.40;99.90
52859;DHT22;38721;53.098;6.596;2022-11-20T00:05:32;-0.50;99.90
52859;DHT22;38721;53.098;6.596;2022-11-20T00:07:58;-0.40;99.90
52859;DHT22;38721;53.098;6.596;2022-11-20T00:10:23;-0.40;99.90
52859;DHT22;38721;53.098;6.596;2022-11-20T00:12:49;-0.50;99.90
52859;DHT22;38721;53.098;6.596;2022-11-20T00:15:15;-0.30;99.90
52859;DHT22;38721;53.098;6.596;2022-11-20T00:17:40;-0.30;99.90
52859;DHT22;38721;53.098;6.596;2022-11-20T00:20:06;-0.40;99.90
52859;DHT22;38721;53.098;6.596;2022-11-20T00:22:32;-0.30;99.90
52859;DHT22;38721;53.098;6.596;2022-11-20T00:24:57;-0.30;99.90
52859;DHT22;38721;53.098;6.596;2022-11-20T00:27:23;-0.30;99.90
52859;DHT22;38721;53.098;6.596;2022-11-20T00:29:49;-0.30;99.90
52859;DHT22;38721;53.098;6.596;2022-11-20T00:32:15;-0.40;99.90
52859;DHT22;38721;53.098;6.596;2022-11-20T00:34:40;-0.30;99.90
52859;DHT22;38721;53.098;6.596;2022-11-20T00:37:08;-0.30;99.90
52859;DHT22;38721;53.098;6.596;2022-11-20T00:39:34;-0.20;99.90
52859;DHT22;38721;53.098;6.596;2022-11-20T00:42:00;-0.20;99.90
52859;DHT22;38721;53.098;6.596;2022-11-20T00:44:26;-0.30;99.90
52859;DHT22;38721;53.098;6.596;2022-11-20T00:46:54;-0.20;99.90
52859;DHT22;38721;53.098;6.596;2022-11-20T00:49:19;-0.30;99.90
52859;DHT22;38721;53.098;6.596;2022-11-20T00:51:45;-0.20;99.90
52859;DHT22;38721;53.098;6.596;2022-11-20T00:54:11;-0.20;99.90
52859;DHT22;38721;53.098;6.596;2022-11-20T00:56:36;-0.30;99.90
52859;DHT22;38721;53.098;6.596;2022-11-20T00:59:02;-0.20;99.90
52859;DHT22;38721;53.098;6.596;2022-11-20T01:01:28;-0.10;99.90
52859;DHT22;38721;53.098;6.596;2022-11-20T01:03:58;-0.20;99.90
52859;DHT22;38721;53.098;6.596;2022-11-20T01:06:27;-0.20;99.90
52859;DHT22;38721;53.098;6.596;2022-11-20T01:08:55;-0.20;99.90
52859;DHT22;38721;53.098;6.596;2022-11-20T01:11:26;-0.10;99.90
52859;DHT22;38721;53.098;6.596;2022-11-20T01:13:53;-0.10;99.90
52859;DHT22;38721;53.098;6.596;2022-11-20T01:16:26;-0.10;99.90
52859;DHT22;38721;53.098;6.596;2022-11-20T01:18:54;-0.10;99.90
52859;DHT22;38721;53.098;6.596;2022-11-20T01:21:27;-0.10;99.90
52859;DHT22;38721;53.098;6.596;2022-11-20T01:23:53;-0.10;99.90
52859;DHT22;38721;53.098;6.596;2022-11-20T01:26:23;-0.20;99.90
52859;DHT22;38721;53.098;6.596;2022-11-20T01:28:50;-0.20;99.90
52859;DHT22;38721;53.098;6.596;2022-11-20T01:33:43;-0.10;99.90
52859;DHT22;38721;53.098;6.596;2022-11-20T01:36:10;-0.10;99.90
52859;DHT22;38721;53.098;6.596;2022-11-20T01:38:36;-0.10;99.90
52859;DHT22;38721;53.098;6.596;2022-11-20T01:41:02;-0.10;99.90
52859;DHT22;38721;53.098;6.596;2022-11-20T01:43:32;-0.10;99.90
52859;DHT22;38721;53.098;6.596;2022-11-20T01:46:18;0.00;99.90
52859;DHT22;38721;53.098;6.596;2022-11-20T01:49:04;0.00;99.90
52859;DHT22;38721;53.098;6.596;2022-11-20T01:51:50;-0.10;99.90
52859;DHT22;38721;53.098;6.596;2022-11-20T01:54:21;-0.10;99.90
52859;DHT22;38721;53.098;6.596;2022-11-20T01:56:51;-0.10;99.90
52859;DHT22;38721;53.098;6.596;2022-11-20T01:59:20;-0.10;99.90
52859;DHT22;38721;53.098;6.596;2022-11-20T02:01:48;0.00;99.90
52859;DHT22;38721;53.098;6.596;2022-11-20T02:04:14;0.00;99.90
52859;DHT22;38721;53.098;6.596;2022-11-20T02:06:47;0.00;99.90
52859;DHT22;38721;53.098;6.596;2022-11-20T02:09:14;0.00;99.90
52859;DHT22;38721;53.098;6.596;2022-11-20T02:11:40;0.00;99.90
52859;DHT22;38721;53.098;6.596;2022-11-20T02:14:06;-0.10;99.90
52859;DHT22;38721;53.098;6.596;2022-11-20T02:16:43;-0.10;99.90
52859;DHT22;38721;53.098;6.596;2022-11-20T02:19:21;0.00;99.90
52859;DHT22;38721;53.098;6.596;2022-11-20T02:22:08;-0.10;99.90
52859;DHT22;38721;53.098;6.596;2022-11-20T02:24:37;-0.10;99.90
52859;DHT22;38721;53.098;6.596;2022-11-20T02:32:29;-0.10;99.90
52859;DHT22;38721;53.098;6.596;2022-11-20T02:34:55;0.00;99.90
52859;DHT22;38721;53.098;6.596;2022-11-20T02:37:22;0.00;99.90
52859;DHT22;38721;53.098;6.596;2022-11-20T02:39:50;0.00;99.90
52859;DHT22;38721;53.098;6.596;2022-11-20T02:42:16;0.00;99.90
52859;DHT22;38721;53.098;6.596;2022-11-20T02:44:42;0.00;99.90
52859;DHT22;38721;53.098;6.596;2022-11-20T02:47:08;0.00;99.90
52859;DHT22;38721;53.098;6.596;2022-11-20T02:49:33;0.00;99.90
52859;DHT22;38721;53.098;6.596;2022-11-20T02:51:59;0.00;99.90
52859;DHT22;38721;53.098;6.596;2022-11-20T02:54:28;0.10;99.90
52859;DHT22;38721;53.098;6.596;2022-11-20T02:56:54;0.10;99.90
52859;DHT22;38721;53.098;6.596;2022-11-20T02:59:20;0.10;99.90
52859;DHT22;38721;53.098;6.596;2022-11-20T03:01:45;0.10;99.90
52859;DHT22;38721;53.098;6.596;2022-11-20T03:04:14;0.20;99.90
52859;DHT22;38721;53.098;6.596;2022-11-20T03:06:39;0.20;99.90
52859;DHT22;38721;53.098;6.596;2022-11-20T03:09:08;0.20;99.90
52859;DHT22;38721;53.098;6.596;2022-11-20T03:11:33;0.20;99.90
52859;DHT22;38721;53.098;6.596;2022-11-20T03:14:03;0.10;99.90
52859;DHT22;38721;53.098;6.596;2022-11-20T03:16:28;0.20;99.90
52859;DHT22;38721;53.098;6.596;2022-11-20T03:18:56;0.20;99.90
52859;DHT22;38721;53.098;6.596;2022-11-20T03:21:22;0.20;99.90
52859;DHT22;38721;53.098;6.596;2022-11-20T03:23:47;0.30;99.90
52859;DHT22;38721;53.098;6.596;2022-11-20T03:26:16;0.30;99.90
52859;DHT22;38721;53.098;6.596;2022-11-20T03:28:46;0.30;99.90
52859;DHT22;38721;53.098;6.596;2022-11-20T03:31:13;0.30;99.90
52859;DHT22;38721;53.098;6.596;2022-11-20T03:33:41;0.30;99.90
52859;DHT22;38721;53.098;6.596;2022-11-20T03:36:09;0.30;99.90
52859;DHT22;38721;53.098;6.596;2022-11-20T03:38:37;0.30;99.90
52859;DHT22;38721;53.098;6.596;2022-11-20T03:41:05;0.30;99.90
52859;DHT22;38721;53.098;6.596;2022-11-20T03:43:31;0.30;99.90
52859;DHT22;38721;53.098;6.596;2022-11-20T03:45:57;0.40;99.90
52859;DHT22;38721;53.098;6.596;2022-11-20T03:48:23;0.30;99.90
52859;DHT22;38721;53.098;6.596;2022-11-20T03:50:49;0.30;99.90
52859;DHT22;38721;53.098;6.596;2022-11-20T03:53:15;0.30;99.90
52859;DHT22;38721;53.098;6.596;2022-11-20T03:55:41;0.40;99.90
52859;DHT22;38721;53.098;6.596;2022-11-20T03:58:07;0.30;99.90
52859;DHT22;38721;53.098;6.596;2022-11-20T04:00:36;0.30;99.90
52859;DHT22;38721;53.098;6.596;2022-11-20T04:03:03;0.40;99.90
52859;DHT22;38721;53.098;6.596;2022-11-20T04:05:29;0.40;99.90
52859;DHT22;38721;53.098;6.596;2022-11-20T04:07:54;0.40;99.90
52859;DHT22;38721;53.098;6.596;2022-11-20T04:10:20;0.40;99.90
52859;DHT22;38721;53.098;6.596;2022-11-20T04:12:46;0.40;99.90
52859;DHT22;38721;53.098;6.596;2022-11-20T04:15:11;0.40;99.90
52859;DHT22;38721;53.098;6.596;2022-11-20T04:17:39;0.40;99.90
52859;DHT22;38721;53.098;6.596;2022-11-20T04:20:08;0.40;99.90
52859;DHT22;38721;53.098;6.596;2022-11-20T04:22:34;0.30;99.90
52859;DHT22;38721;53.098;6.596;2022-11-20T04:25:00;0.40;99.90
52859;DHT22;38721;53.098;6.596;2022-11-20T04:27:25;0.40;99.90
52859;DHT22;38721;53.098;6.596;2022-11-20T04:29:51;0.40;99.90
52859;DHT22;38721;53.098;6.596;2022-11-20T04:32:19;0.50;99.90
52859;DHT22;38721;53.098;6.596;2022-11-20T04:34:45;0.50;99.90
52859;DHT22;38721;53.098;6.596;2022-11-20T04:37:11;0.50;99.90
52859;DHT22;38721;53.098;6.596;2022-11-20T04:39:36;0.50;99.90
52859;DHT22;38721;53.098;6.596;2022-11-20T04:42:02;0.40;99.90
52859;DHT22;38721;53.098;6.596;2022-11-20T04:44:46;0.50;99.90
52859;DHT22;38721;53.098;6.596;2022-11-20T04:47:12;0.50;99.90
52859;DHT22;38721;53.098;6.596;2022-11-20T04:49:40;0.40;99.90
52859;DHT22;38721;53.098;6.596;2022-11-20T04:52:05;0.50;99.90
52859;DHT22;38721;53.098;6.596;2022-11-20T04:54:31;0.50;99.90
52859;DHT22;38721;53.098;6.596;2022-11-20T04:56:57;0.50;99.90
52859;DHT22;38721;53.098;6.596;2022-11-20T04:59:22;0.50;99.90
52859;DHT22;38721;53.098;6.596;2022-11-20T05:01:48;0.50;99.90
52859;DHT22;38721;53.098;6.596;2022-11-20T05:04:14;0.50;99.90
52859;DHT22;38721;53.098;6.596;2022-11-20T05:06:39;0.50;99.90
52859;DHT22;38721;53.098;6.596;2022-11-20T05:09:08;0.50;99.90
52859;DHT22;38721;53.098;6.596;2022-11-20T05:11:33;0.50;99.90
52859;DHT22;38721;53.098;6.596;2022-11-20T05:13:59;0.50;99.90
52859;DHT22;38721;53.098;6.596;2022-11-20T05:16:25;0.50;99.90
52859;DHT22;38721;53.098;6.596;2022-11-20T05:18:52;0.50;99.90
52859;DHT22;38721;53.098;6.596;2022-11-20T05:21:18;0.50;99.90
52859;DHT22;38721;53.098;6.596;2022-11-20T05:23:45;0.50;99.90
52859;DHT22;38721;53.098;6.596;2022-11-20T05:26:17;0.50;99.90
52859;DHT22;38721;53.098;6.596;2022-11-20T05:28:43;0.50;99.90
52859;DHT22;38721;53.098;6.596;2022-11-20T05:31:14;0.50;99.90
52859;DHT22;38721;53.098;6.596;2022-11-20T05:33:41;0.50;99.90
52859;DHT22;38721;53.098;6.596;2022-11-20T05:36:08;0.50;99.90
52859;DHT22;38721;53.098;6.596;2022-11-20T05:38:33;0.50;99.90
52859;DHT22;38721;53.098;6.596;2022-11-20T05:41:07;0.50;99.90
52859;DHT22;38721;53.098;6.596;2022-11-20T05:43:35;0.50;99.90
52859;DHT22;38721;53.098;6.596;2022-11-20T05:46:01;0.50;99.90
52859;DHT22;38721;53.098;6.596;2022-11-20T05:48:27;0.50;99.90
52859;DHT22;38721;53.098;6.596;2022-11-20T05:50:53;0.50;99.90
52859;DHT22;38721;53.098;6.596;2022-11-20T05:53:19;0.50;99.90
52859;DHT22;38721;53.098;6.596;2022-11-20T05:55:55;0.60;99.90
52859;DHT22;38721;53.098;6.596;2022-11-20T05:58:21;0.60;99.90
52859;DHT22;38721;53.098;6.596;2022-11-20T06:00:46;0.60;99.90
52859;DHT22;38721;53.098;6.596;2022-11-20T06:03:12;0.60;99.90
52859;DHT22;38721;53.098;6.596;2022-11-20T06:05:37;0.60;99.90
52859;DHT22;38721;53.098;6.596;2022-11-20T06:08:03;0.60;99.90
52859;DHT22;38721;53.098;6.596;2022-11-20T06:10:29;0.60;99.90
52859;DHT22;38721;53.098;6.596;2022-11-20T06:12:57;0.60;99.90
52859;DHT22;38721;53.098;6.596;2022-11-20T06:15:23;0.60;99.90
52859;DHT22;38721;53.098;6.596;2022-11-20T06:17:52;0.60;99.90
52859;DHT22;38721;53.098;6.596;2022-11-20T06:20:18;0.60;99.90
52859;DHT22;38721;53.098;6.596;2022-11-20T06:22:44;0.60;99.90
52859;DHT22;38721;53.098;6.596;2022-11-20T06:25:09;0.60;99.90
52859;DHT22;38721;53.098;6.596;2022-11-20T06:27:35;0.60;99.90
52859;DHT22;38721;53.098;6.596;2022-11-20T06:30:00;0.60;99.90
52859;DHT22;38721;53.098;6.596;2022-11-20T06:32:26;0.60;99.90
52859;DHT22;38721;53.098;6.596;2022-11-20T06:34:52;0.60;99.90
52859;DHT22;38721;53.098;6.596;2022-11-20T06:37:17;0.60;99.90
52859;DHT22;38721;53.098;6.596;2022-11-20T06:39:43;0.60;99.90
52859;DHT22;38721;53.098;6.596;2022-11-20T06:42:11;0.60;99.90
52859;DHT22;38721;53.098;6.596;2022-11-20T06:44:37;0.60;99.90
52859;DHT22;38721;53.098;6.596;2022-11-20T06:47:02;0.60;99.90
52859;DHT22;38721;53.098;6.596;2022-11-20T06:49:28;0.60;99.90
52859;DHT22;38721;53.098;6.596;2022-11-20T06:51:54;0.60;99.90
52859;DHT22;38721;53.098;6.596;2022-11-20T06:54:19;0.60;99.90
52859;DHT22;38721;53.098;6.596;2022-11-20T06:56:51;0.70;99.90
52859;DHT22;38721;53.098;6.596;2022-11-20T06:59:16;0.60;99.90
52859;DHT22;38721;53.098;6.596;2022-11-20T07:01:42;0.70;99.90
52859;DHT22;38721;53.098;6.596;2022-11-20T07:04:08;0.70;99.90
52859;DHT22;38721;53.098;6.596;2022-11-20T07:06:35;0.70;99.90
52859;DHT22;38721;53.098;6.596;2022-11-20T07:09:01;0.60;99.90
52859;DHT22;38721;53.098;6.596;2022-11-20T07:11:27;0.70;99.90
52859;DHT22;38721;53.098;6.596;2022-11-20T07:13:53;0.70;99.90
52859;DHT22;38721;53.098;6.596;2022-11-20T07:16:21;0.70;99.90
52859;DHT22;38721;53.098;6.596;2022-11-20T07:18:47;0.70;99.90
52859;DHT22;38721;53.098;6.596;2022-11-20T07:21:13;0.80;99.90
52859;DHT22;38721;53.098;6.596;2022-11-20T07:23:38;0.80;99.90
52859;DHT22;38721;53.098;6.596;2022-11-20T07:26:11;0.70;99.90
52859;DHT22;38721;53.098;6.596;2022-11-20T07:28:37;0.80;99.90
52859;DHT22;38721;53.098;6.596;2022-11-20T07:31:04;0.80;99.90
52859;DHT22;38721;53.098;6.596;2022-11-20T07:33:30;0.80;99.90
52859;DHT22;38721;53.098;6.596;2022-11-20T07:35:57;0.90;99.90
52859;DHT22;38721;53.098;6.596;2022-11-20T07:38:23;0.90;99.90
52859;DHT22;38721;53.098;6.596;2022-11-20T07:40:53;0.90;99.90
52859;DHT22;38721;53.098;6.596;2022-11-20T07:43:23;0.90;99.90
52859;DHT22;38721;53.098;6.596;2022-11-20T07:45:48;0.90;99.90
52859;DHT22;38721;53.098;6.596;2022-11-20T07:48:14;1.00;99.90
52859;DHT22;38721;53.098;6.596;2022-11-20T07:50:40;1.00;99.90
52859;DHT22;38721;53.098;6.596;2022-11-20T07:53:08;1.00;99.90
52859;DHT22;38721;53.098;6.596;2022-11-20T07:55:34;1.00;99.90
52859;DHT22;38721;53.098;6.596;2022-11-20T07:58:00;1.00;99.90
52859;DHT22;38721;53.098;6.596;2022-11-20T08:00:26;1.00;99.90
52859;DHT22;38721;53.098;6.596;2022-11-20T08:02:52;1.00;99.90
52859;DHT22;38721;53.098;6.596;2022-11-20T08:05:18;1.10;99.90
52859;DHT22;38721;53.098;6.596;2022-11-20T08:07:44;1.10;99.90
52859;DHT22;38721;53.098;6.596;2022-11-20T08:10:13;1.10;99.90
52859;DHT22;38721;53.098;6.596;2022-11-20T08:12:50;1.10;99.90
52859;DHT22;38721;53.098;6.596;2022-11-20T08:15:36;1.10;99.90
52859;DHT22;38721;53.098;6.596;2022-11-20T08:18:07;1.10;99.90
52859;DHT22;38721;53.098;6.596;2022-11-20T08:20:41;1.10;99.90
52859;DHT22;38721;53.098;6.596;2022-11-20T08:23:08;1.10;99.90
52859;DHT22;38721;53.098;6.596;2022-11-20T08:25:35;1.10;99.90
52859;DHT22;38721;53.098;6.596;2022-11-20T08:28:04;1.10;99.90
52859;DHT22;38721;53.098;6.596;2022-11-20T08:30:30;1.10;99.90
52859;DHT22;38721;53.098;6.596;2022-11-20T08:33:05;1.10;99.90
52859;DHT22;38721;53.098;6.596;2022-11-20T08:35:35;1.10;99.90
52859;DHT22;38721;53.098;6.596;2022-11-20T08:38:02;1.10;99.90
52859;DHT22;38721;53.098;6.596;2022-11-20T08:40:28;1.20;99.90
52859;DHT22;38721;53.098;6.596;2022-11-20T08:42:54;1.10;99.90
52859;DHT22;38721;53.098;6.596;2022-11-20T08:45:20;1.10;99.90
52859;DHT22;38721;53.098;6.596;2022-11-20T08:47:46;1.20;99.90
52859;DHT22;38721;53.098;6.596;2022-11-20T08:50:13;1.20;99.90
52859;DHT22;38721;53.098;6.596;2022-11-20T08:52:39;1.20;99.90
52859;DHT22;38721;53.098;6.596;2022-11-20T08:55:06;1.20;99.90
52859;DHT22;38721;53.098;6.596;2022-11-20T08:57:35;1.20;99.90
52859;DHT22;38721;53.098;6.596;2022-11-20T09:00:05;1.20;99.90
52859;DHT22;38721;53.098;6.596;2022-11-20T09:02:31;1.10;99.90
52859;DHT22;38721;53.098;6.596;2022-11-20T09:04:58;1.20;99.90
52859;DHT22;38721;53.098;6.596;2022-11-20T09:07:23;1.10;99.90
52859;DHT22;38721;53.098;6.596;2022-11-20T09:09:49;1.20;99.90
52859;DHT22;38721;53.098;6.596;2022-11-20T09:12:15;1.10;99.90
52859;DHT22;38721;53.098;6.596;2022-11-20T09:14:43;1.20;99.90
52859;DHT22;38721;53.098;6.596;2022-11-20T09:17:10;1.30;99.90
52859;DHT22;38721;53.098;6.596;2022-11-20T09:19:39;1.20;99.90
52859;DHT22;38721;53.098;6.596;2022-11-20T09:22:04;1.30;99.90
52859;DHT22;38721;53.098;6.596;2022-11-20T09:24:30;1.40;99.90
52859;DHT22;38721;53.098;6.596;2022-11-20T09:27:01;1.30;99.90
52859;DHT22;38721;53.098;6.596;2022-11-20T09:29:27;1.40;99.90
52859;DHT22;38721;53.098;6.596;2022-11-20T09:31:52;1.40;99.90
52859;DHT22;38721;53.098;6.596;2022-11-20T09:34:18;1.50;99.90
52859;DHT22;38721;53.098;6.596;2022-11-20T09:36:44;1.50;99.90
52859;DHT22;38721;53.098;6.596;2022-11-20T09:39:10;1.60;99.90
52859;DHT22;38721;53.098;6.596;2022-11-20T09:41:55;1.70;99.90
52859;DHT22;38721;53.098;6.596;2022-11-20T09:47:53;1.80;99.90
52859;DHT22;38721;53.098;6.596;2022-11-20T09:50:55;1.90;99.90
52859;DHT22;38721;53.098;6.596;2022-11-20T09:53:36;1.90;99.90
52859;DHT22;38721;53.098;6.596;2022-11-20T09:56:03;2.00;99.90
52859;DHT22;38721;53.098;6.596;2022-11-20T09:58:45;2.00;99.90
52859;DHT22;38721;53.098;6.596;2022-11-20T10:01:16;2.00;99.90
52859;DHT22;38721;53.098;6.596;2022-11-20T10:04:03;2.00;99.90
52859;DHT22;38721;53.098;6.596;2022-11-20T10:06:30;2.10;99.90
52859;DHT22;38721;53.098;6.596;2022-11-20T10:14:01;2.20;99.90
52859;DHT22;38721;53.098;6.596;2022-11-20T10:16:59;2.00;99.90
52859;DHT22;38721;53.098;6.596;2022-11-20T10:27:32;2.50;1.00
52859;DHT22;38721;53.098;6.596;2022-11-20T10:30:13;2.60;9.70
52859;DHT22;38721;53.098;6.596;2022-11-20T10:32:46;2.80;99.90
52859;DHT22;38721;53.098;6.596;2022-11-20T10:37:45;2.90;99.90
52859;DHT22;38721;53.098;6.596;2022-11-20T10:42:56;2.90;1.00
52859;DHT22;38721;53.098;6.596;2022-11-20T10:47:56;3.10;60.80
52859;DHT22;38721;53.098;6.596;2022-11-20T10:50:22;2.90;1.00
52859;DHT22;38721;53.098;6.596;2022-11-20T10:56:30;3.20;26.10
52859;DHT22;38721;53.098;6.596;2022-11-20T10:59:04;3.10;1.00
52859;DHT22;38721;53.098;6.596;2022-11-20T11:01:40;3.00;99.90
52859;DHT22;38721;53.098;6.596;2022-11-20T11:04:32;3.00;99.90
52859;DHT22;38721;53.098;6.596;2022-11-20T11:07:16;2.90;99.90
52859;DHT22;38721;53.098;6.596;2022-11-20T11:09:48;3.00;99.90
52859;DHT22;38721;53.098;6.596;2022-11-20T11:12:14;3.00;1.00
52859;DHT22;38721;53.098;6.596;2022-11-20T11:14:49;2.90;99.90
52859;DHT22;38721;53.098;6.596;2022-11-20T11:17:29;2.90;99.90
52859;DHT22;38721;53.098;6.596;2022-11-20T11:20:07;2.90;99.90
52859;DHT22;38721;53.098;6.596;2022-11-20T11:22:54;3.00;99.90
52859;DHT22;38721;53.098;6.596;2022-11-20T11:27:56;3.00;99.90
52859;DHT22;38721;53.098;6.596;2022-11-20T11:30:27;3.00;99.90
52859;DHT22;38721;53.098;6.596;2022-11-20T11:33:17;3.10;99.90
52859;DHT22;38721;53.098;6.596;2022-11-20T11:35:49;3.10;99.90
52859;DHT22;38721;53.098;6.596;2022-11-20T11:38:36;3.20;99.90
52859;DHT22;38721;53.098;6.596;2022-11-20T11:41:04;3.30;99.90
52859;DHT22;38721;53.098;6.596;2022-11-20T11:43:32;3.40;85.10
52859;DHT22;38721;53.098;6.596;2022-11-20T11:46:23;3.40;67.60
52859;DHT22;38721;53.098;6.596;2022-11-20T11:49:15;3.50;27.10
52859;DHT22;38721;53.098;6.596;2022-11-20T11:54:37;3.60;43.90
52859;DHT22;38721;53.098;6.596;2022-11-20T11:57:23;3.50;99.90
52859;DHT22;38721;53.098;6.596;2022-11-20T12:05:34;3.80;1.00
52859;DHT22;38721;53.098;6.596;2022-11-20T12:08:15;3.80;83.20
52859;DHT22;38721;53.098;6.596;2022-11-20T12:10:48;3.80;99.90
52859;DHT22;38721;53.098;6.596;2022-11-20T12:16:04;4.00;99.90
52859;DHT22;38721;53.098;6.596;2022-11-20T12:18:31;4.20;99.90
52859;DHT22;38721;53.098;6.596;2022-11-20T12:21:17;4.40;99.90
52859;DHT22;38721;53.098;6.596;2022-11-20T12:24:17;4.40;99.90
52859;DHT22;38721;53.098;6.596;2022-11-20T12:36:03;4.70;1.00
52859;DHT22;38721;53.098;6.596;2022-11-20T12:53:02;4.20;1.00
52859;DHT22;38721;53.098;6.596;2022-11-20T13:04:23;4.50;1.00
52859;DHT22;38721;53.098;6.596;2022-11-20T13:06:50;4.70;99.90
52859;DHT22;38721;53.098;6.596;2022-11-20T13:09:20;4.80;99.90
52859;DHT22;38721;53.098;6.596;2022-11-20T13:12:09;4.60;76.30
52859;DHT22;38721;53.098;6.596;2022-11-20T13:20:17;4.50;43.60
52859;DHT22;38721;53.098;6.596;2022-11-20T13:22:48;4.50;99.90
52859;DHT22;38721;53.098;6.596;2022-11-20T13:27:53;4.50;10.70
52859;DHT22;38721;53.098;6.596;2022-11-20T13:30:29;4.50;99.90
52859;DHT22;38721;53.098;6.596;2022-11-20T13:33:02;4.60;99.90
52859;DHT22;38721;53.098;6.596;2022-11-20T13:35:39;4.70;99.90
52859;DHT22;38721;53.098;6.596;2022-11-20T13:38:11;4.60;1.00
52859;DHT22;38721;53.098;6.596;2022-11-20T13:41:00;4.50;99.90
52859;DHT22;38721;53.098;6.596;2022-11-20T13:43:38;4.70;99.90
52859;DHT22;38721;53.098;6.596;2022-11-20T13:46:07;4.70;99.90
52859;DHT22;38721;53.098;6.596;2022-11-20T13:48:39;4.50;99.90
52859;DHT22;38721;53.098;6.596;2022-11-20T13:51:27;4.60;99.90
52859;DHT22;38721;53.098;6.596;2022-11-20T14:02:03;4.40;1.00
52859;DHT22;38721;53.098;6.596;2022-11-20T14:04:36;4.40;1.00
52859;DHT22;38721;53.098;6.596;2022-11-20T14:07:05;4.40;99.90
52859;DHT22;38721;53.098;6.596;2022-11-20T14:09:34;4.40;99.90
52859;DHT22;38721;53.098;6.596;2022-11-20T14:12:02;4.30;99.90
52859;DHT22;38721;53.098;6.596;2022-11-20T14:14:33;4.30;99.90
52859;DHT22;38721;53.098;6.596;2022-11-20T14:20:00;4.10;99.90
52859;DHT22;38721;53.098;6.596;2022-11-20T14:22:29;4.10;99.90
52859;DHT22;38721;53.098;6.596;2022-11-20T14:25:19;4.00;99.90
52859;DHT22;38721;53.098;6.596;2022-11-20T14:27:57;3.90;99.90
52859;DHT22;38721;53.098;6.596;2022-11-20T14:30:25;3.90;99.90
52859;DHT22;38721;53.098;6.596;2022-11-20T14:32:54;3.90;99.90
52859;DHT22;38721;53.098;6.596;2022-11-20T14:35:35;3.70;99.90
52859;DHT22;38721;53.098;6.596;2022-11-20T14:38:14;3.80;99.90
52859;DHT22;38721;53.098;6.596;2022-11-20T14:40:40;3.70;99.90
52859;DHT22;38721;53.098;6.596;2022-11-20T14:43:25;3.70;99.90
52859;DHT22;38721;53.098;6.596;2022-11-20T14:46:00;3.70;1.00
52859;DHT22;38721;53.098;6.596;2022-11-20T14:48:44;3.50;99.90
52859;DHT22;38721;53.098;6.596;2022-11-20T14:54:18;3.40;99.90
52859;DHT22;38721;53.098;6.596;2022-11-20T14:57:03;3.30;99.90
52859;DHT22;38721;53.098;6.596;2022-11-20T14:59:31;3.30;99.90
52859;DHT22;38721;53.098;6.596;2022-11-20T15:02:07;3.20;1.00
52859;DHT22;38721;53.098;6.596;2022-11-20T15:05:08;3.20;1.00
52859;DHT22;38721;53.098;6.596;2022-11-20T15:07:44;3.10;1.00
52859;DHT22;38721;53.098;6.596;2022-11-20T15:10:23;2.90;1.00
52859;DHT22;38721;53.098;6.596;2022-11-20T15:12:53;2.80;36.30
52859;DHT22;38721;53.098;6.596;2022-11-20T15:15:46;2.80;94.40
52859;DHT22;38721;53.098;6.596;2022-11-20T15:18:21;2.60;99.90
52859;DHT22;38721;53.098;6.596;2022-11-20T15:20:47;2.50;99.90
52859;DHT22;38721;53.098;6.596;2022-11-20T15:23:17;2.50;99.90
52859;DHT22;38721;53.098;6.596;2022-11-20T15:25:47;2.50;99.90
52859;DHT22;38721;53.098;6.596;2022-11-20T15:28:36;2.40;99.90
52859;DHT22;38721;53.098;6.596;2022-11-20T15:31:03;2.40;99.90
52859;DHT22;38721;53.098;6.596;2022-11-20T15:33:31;2.40;99.90
52859;DHT22;38721;53.098;6.596;2022-11-20T15:35:57;2.40;99.90
52859;DHT22;38721;53.098;6.596;2022-11-20T15:38:22;2.40;99.90
52859;DHT22;38721;53.098;6.596;2022-11-20T15:40:54;2.40;99.90
52859;DHT22;38721;53.098;6.596;2022-11-20T15:43:20;2.30;99.90
52859;DHT22;38721;53.098;6.596;2022-11-20T15:46:06;2.40;1.00
52859;DHT22;38721;53.098;6.596;2022-11-20T15:48:45;2.30;1.00
52859;DHT22;38721;53.098;6.596;2022-11-20T15:51:14;2.30;50.60
52859;DHT22;38721;53.098;6.596;2022-11-20T15:53:42;2.20;99.90
52859;DHT22;38721;53.098;6.596;2022-11-20T15:56:12;2.30;99.90
52859;DHT22;38721;53.098;6.596;2022-11-20T15:58:38;2.20;99.90
52859;DHT22;38721;53.098;6.596;2022-11-20T16:01:04;2.20;99.90
52859;DHT22;38721;53.098;6.596;2022-11-20T16:03:33;2.20;99.90
52859;DHT22;38721;53.098;6.596;2022-11-20T16:05:59;2.10;99.90
52859;DHT22;38721;53.098;6.596;2022-11-20T16:08:25;2.20;99.90
52859;DHT22;38721;53.098;6.596;2022-11-20T16:10:50;2.10;99.90
52859;DHT22;38721;53.098;6.596;2022-11-20T16:13:17;2.10;99.90
52859;DHT22;38721;53.098;6.596;2022-11-20T16:16:25;2.10;99.90
52859;DHT22;38721;53.098;6.596;2022-11-20T16:18:54;2.10;99.90
52859;DHT22;38721;53.098;6.596;2022-11-20T16:21:20;2.10;99.90
52859;DHT22;38721;53.098;6.596;2022-11-20T16:23:48;2.10;99.90
52859;DHT22;38721;53.098;6.596;2022-11-20T16:26:16;2.10;99.90
52859;DHT22;38721;53.098;6.596;2022-11-20T16:28:45;2.10;99.90
52859;DHT22;38721;53.098;6.596;2022-11-20T16:31:18;2.00;86.00
52859;DHT22;38721;53.098;6.596;2022-11-20T16:33:49;2.00;99.90
52859;DHT22;38721;53.098;6.596;2022-11-20T16:36:16;2.00;99.90
52859;DHT22;38721;53.098;6.596;2022-11-20T16:38:45;2.00;99.90
52859;DHT22;38721;53.098;6.596;2022-11-20T16:41:10;2.00;99.90
52859;DHT22;38721;53.098;6.596;2022-11-20T16:43:45;2.00;99.90
52859;DHT22;38721;53.098;6.596;2022-11-20T16:46:18;2.00;99.90
52859;DHT22;38721;53.098;6.596;2022-11-20T16:48:44;2.00;99.90
52859;DHT22;38721;53.098;6.596;2022-11-20T16:51:13;1.90;99.90
52859;DHT22;38721;53.098;6.596;2022-11-20T16:53:42;2.00;99.90
52859;DHT22;38721;53.098;6.596;2022-11-20T16:56:16;2.00;99.90
52859;DHT22;38721;53.098;6.596;2022-11-20T16:58:43;2.00;99.90
52859;DHT22;38721;53.098;6.596;2022-11-20T17:01:11;1.90;99.90
52859;DHT22;38721;53.098;6.596;2022-11-20T17:03:41;1.90;99.90
52859;DHT22;38721;53.098;6.596;2022-11-20T17:06:19;1.90;99.90
52859;DHT22;38721;53.098;6.596;2022-11-20T17:08:45;1.90;99.90
52859;DHT22;38721;53.098;6.596;2022-11-20T17:11:14;1.90;99.90
52859;DHT22;38721;53.098;6.596;2022-11-20T17:13:40;1.90;99.90
52859;DHT22;38721;53.098;6.596;2022-11-20T17:16:15;1.90;99.90
52859;DHT22;38721;53.098;6.596;2022-11-20T17:18:44;1.90;99.90
52859;DHT22;38721;53.098;6.596;2022-11-20T17:21:11;1.80;99.90
52859;DHT22;38721;53.098;6.596;2022-11-20T17:23:42;1.90;99.90
52859;DHT22;38721;53.098;6.596;2022-11-20T17:26:19;1.90;1.00
52859;DHT22;38721;53.098;6.596;2022-11-20T17:29:00;1.90;1.00
52859;DHT22;38721;53.098;6.596;2022-11-20T17:31:27;1.90;1.00
52859;DHT22;38721;53.098;6.596;2022-11-20T17:33:53;1.80;1.00
52859;DHT22;38721;53.098;6.596;2022-11-20T17:36:20;1.90;1.00
52859;DHT22;38721;53.098;6.596;2022-11-20T17:38:46;1.90;1.00
52859;DHT22;38721;53.098;6.596;2022-11-20T17:41:16;1.80;1.00
52859;DHT22;38721;53.098;6.596;2022-11-20T17:43:43;1.80;1.00
52859;DHT22;38721;53.098;6.596;2022-11-20T17:46:17;1.80;1.00